Terminal Aerodrome Forecast
Issued by NWS

Home | Current Version | Previous Version | Text Only | Print | Product List | Glossary Off
Versions: 1 2 3 4 5 6 7 8 9 10 11 12 13 14 15 16 17 18

075
FTUS43 KTOP 262334
TAFFOE
TAF
KFOE 262334Z 2700/2724 33013KT P6SM OVC035
     FM270400 29005KT P6SM SCT070
     FM271900 16007KT P6SM BKN100=

USA.gov is the U.S. government's official web portal to all federal, state and local government web resources and services.